createdAt,value
2023-01-27T00:00:15.860Z,-0.60
2023-01-27T00:03:25.294Z,-0.70
2023-01-27T00:06:35.161Z,-0.70
2023-01-27T00:09:44.074Z,-0.70
2023-01-27T00:13:10.092Z,-0.80
2023-01-27T00:16:18.575Z,-0.90
2023-01-27T00:19:27.200Z,-0.90
2023-01-27T00:22:54.265Z,-0.80
2023-01-27T00:26:06.583Z,-0.80
2023-01-27T00:29:15.394Z,-0.80
2023-01-27T00:32:41.365Z,-0.90
2023-01-27T00:35:50.288Z,-1.00
2023-01-27T00:39:00.106Z,-0.90
2023-01-27T00:42:08.607Z,-0.90
2023-01-27T00:45:34.618Z,-0.90
2023-01-27T00:48:43.148Z,-1.10
2023-01-27T00:51:51.834Z,-1.20
2023-01-27T00:55:01.669Z,-1.10
2023-01-27T00:58:10.351Z,-1.20
2023-01-27T01:01:19.377Z,-1.30
2023-01-27T01:04:27.918Z,-1.40
2023-01-27T01:07:36.410Z,-1.40
2023-01-27T01:10:47.031Z,-1.40
2023-01-27T01:13:56.532Z,-1.40
2023-01-27T01:17:08.083Z,-1.50
2023-01-27T01:20:16.713Z,-1.50
2023-01-27T01:23:25.169Z,-1.50
2023-01-27T01:26:34.987Z,-1.60
2023-01-27T01:29:43.408Z,-1.40
2023-01-27T01:32:51.838Z,-1.40
2023-01-27T01:36:05.365Z,-1.50
2023-01-27T01:39:13.859Z,-1.60
2023-01-27T01:42:23.682Z,-1.50
2023-01-27T01:45:53.915Z,-1.40
2023-01-27T01:49:03.927Z,-1.50
2023-01-27T01:52:16.277Z,-1.40
2023-01-27T01:55:25.859Z,-1.40
2023-01-27T01:58:37.912Z,-1.50
2023-01-27T02:01:48.648Z,-1.50
2023-01-27T02:05:00.474Z,-1.60
2023-01-27T02:08:15.226Z,-1.60
2023-01-27T02:11:26.162Z,-1.70
2023-01-27T02:14:36.134Z,-1.80
2023-01-27T02:17:44.961Z,-1.80
2023-01-27T02:20:54.859Z,-1.90
2023-01-27T02:24:10.835Z,-1.80
2023-01-27T02:27:20.686Z,-1.90
2023-01-27T02:30:29.548Z,-1.90
2023-01-27T02:33:38.327Z,-1.90
2023-01-27T02:36:51.175Z,-1.80
2023-01-27T02:40:03.350Z,-1.90
2023-01-27T02:43:13.528Z,-1.90
2023-01-27T02:46:23.741Z,-2.00
2023-01-27T02:49:32.366Z,-2.10
2023-01-27T02:52:40.809Z,-2.20
2023-01-27T02:55:49.451Z,-2.20
2023-01-27T02:58:59.421Z,-2.10
2023-01-27T03:02:23.044Z,-2.10
2023-01-27T03:05:32.776Z,-2.00
2023-01-27T03:08:41.521Z,-2.10
2023-01-27T03:12:21.827Z,-2.20
2023-01-27T03:15:49.192Z,-2.20
2023-01-27T03:18:57.627Z,-2.20
2023-01-27T03:22:06.787Z,-2.40
2023-01-27T03:25:18.000Z,-2.40
2023-01-27T03:28:26.764Z,-2.40
2023-01-27T03:32:02.466Z,-2.50
2023-01-27T03:35:14.473Z,-2.50
2023-01-27T03:38:40.898Z,-2.40
2023-01-27T03:42:06.546Z,-2.40
2023-01-27T03:45:34.414Z,-2.50
2023-01-27T03:48:44.416Z,-2.50
2023-01-27T03:51:52.905Z,-2.50
2023-01-27T03:55:01.388Z,-2.60
2023-01-27T03:58:19.997Z,-2.50
2023-01-27T04:01:28.480Z,-2.50
2023-01-27T04:04:55.692Z,-2.50
2023-01-27T04:08:06.682Z,-2.50
2023-01-27T04:11:32.684Z,-2.50
2023-01-27T04:14:43.080Z,-2.60
2023-01-27T04:17:52.344Z,-2.60
2023-01-27T04:21:02.142Z,-2.60
2023-01-27T04:24:22.565Z,-2.60
2023-01-27T04:27:31.131Z,-2.60
2023-01-27T04:30:39.610Z,-2.60
2023-01-27T04:33:48.094Z,-2.70
2023-01-27T04:36:58.081Z,-2.60
2023-01-27T04:40:07.597Z,-2.50
2023-01-27T04:43:16.008Z,-2.50
2023-01-27T04:46:28.931Z,-2.50
2023-01-27T04:49:37.327Z,-2.50
2023-01-27T04:52:47.467Z,-2.50
2023-01-27T04:56:03.652Z,-2.50
2023-01-27T04:59:14.199Z,-2.40
2023-01-27T05:02:22.620Z,-2.50
2023-01-27T05:05:31.066Z,-2.50
2023-01-27T05:08:40.912Z,-2.50
2023-01-27T05:11:49.282Z,-2.40
2023-01-27T05:14:57.684Z,-2.30
2023-01-27T05:18:06.253Z,-2.30
2023-01-27T05:21:16.307Z,-2.30
2023-01-27T05:24:26.463Z,-2.40
2023-01-27T05:27:34.925Z,-2.60
2023-01-27T05:30:43.519Z,-2.70
2023-01-27T05:33:53.787Z,-2.70
2023-01-27T05:37:02.251Z,-2.70
2023-01-27T05:40:13.984Z,-2.60
2023-01-27T05:43:22.388Z,-2.50
2023-01-27T05:46:32.652Z,-2.50
2023-01-27T05:49:41.163Z,-2.50
2023-01-27T05:52:49.604Z,-2.60
2023-01-27T05:55:59.647Z,-2.70
2023-01-27T05:59:08.569Z,-2.70
2023-01-27T06:02:17.046Z,-2.60
2023-01-27T06:05:26.120Z,-2.60
2023-01-27T06:08:35.050Z,-2.70
2023-01-27T06:11:44.864Z,-2.70
2023-01-27T06:14:53.577Z,-2.70
2023-01-27T06:18:01.975Z,-2.60
2023-01-27T06:21:12.223Z,-2.60
2023-01-27T06:24:20.769Z,-2.60
2023-01-27T06:27:31.581Z,-2.70
2023-01-27T06:30:41.143Z,-2.60
2023-01-27T06:33:50.032Z,-2.60
2023-01-27T06:36:58.514Z,-2.50
2023-01-27T06:40:07.862Z,-2.50
2023-01-27T06:43:18.246Z,-2.50
2023-01-27T06:46:30.012Z,-2.60
2023-01-27T06:49:38.450Z,-2.60
2023-01-27T06:52:46.915Z,-2.60
2023-01-27T06:55:58.912Z,-2.60
2023-01-27T06:59:08.747Z,-2.50
2023-01-27T07:02:17.195Z,-2.60
2023-01-27T07:05:26.130Z,-2.60
2023-01-27T07:08:34.709Z,-2.50
2023-01-27T07:11:43.258Z,-2.40
2023-01-27T07:14:53.071Z,-2.50
2023-01-27T07:18:01.643Z,-2.50
2023-01-27T07:21:10.120Z,-2.50
2023-01-27T07:24:19.291Z,-2.60
2023-01-27T07:27:28.270Z,-2.60
2023-01-27T07:30:39.373Z,-2.60
2023-01-27T07:33:47.879Z,-2.60
2023-01-27T07:36:56.484Z,-2.60
2023-01-27T07:40:05.158Z,-2.60
2023-01-27T07:43:13.886Z,-2.60
2023-01-27T07:46:24.323Z,-2.40
2023-01-27T07:49:32.789Z,-2.40
2023-01-27T07:52:41.139Z,-2.20
2023-01-27T07:55:49.655Z,-2.10
2023-01-27T07:58:58.230Z,-2.00
2023-01-27T08:02:08.243Z,-2.00
2023-01-27T08:05:16.796Z,-2.00
2023-01-27T08:08:25.318Z,-2.00
2023-01-27T08:11:34.309Z,-2.00
2023-01-27T08:14:42.766Z,-1.90
2023-01-27T08:17:56.905Z,-1.60
2023-01-27T08:21:07.774Z,-1.50
2023-01-27T08:24:16.444Z,-1.40
2023-01-27T08:27:25.178Z,-1.40
2023-01-27T08:30:33.608Z,-1.30
2023-01-27T08:33:45.475Z,-1.10
2023-01-27T08:36:53.893Z,-1.10
2023-01-27T08:40:02.703Z,-1.10
2023-01-27T08:43:11.710Z,-1.00
2023-01-27T08:46:20.283Z,-0.90
2023-01-27T08:49:30.074Z,-0.70
2023-01-27T08:52:38.609Z,-0.40
2023-01-27T08:55:46.999Z,-0.10
2023-01-27T08:58:56.710Z,0.20
2023-01-27T09:02:05.221Z,0.30
2023-01-27T09:05:17.868Z,0.80
2023-01-27T09:08:26.852Z,1.30
2023-01-27T09:11:35.524Z,1.50
2023-01-27T09:14:44.200Z,1.80
2023-01-27T09:17:52.646Z,2.40
2023-01-27T09:21:06.461Z,3.30
2023-01-27T09:24:17.894Z,4.10
2023-01-27T09:27:38.856Z,4.40
2023-01-27T09:30:48.312Z,4.50
2023-01-27T09:33:56.745Z,4.80
2023-01-27T09:37:10.111Z,4.40
2023-01-27T09:40:31.872Z,4.60
2023-01-27T09:44:01.938Z,4.80
2023-01-27T09:47:37.541Z,5.30
2023-01-27T09:50:47.366Z,5.40
2023-01-27T09:54:33.911Z,5.90
2023-01-27T09:57:50.543Z,5.90
2023-01-27T10:01:07.585Z,5.20
2023-01-27T10:04:32.829Z,4.60
2023-01-27T10:08:08.882Z,4.30
2023-01-27T10:11:28.446Z,4.10
2023-01-27T10:14:42.825Z,4.10
2023-01-27T10:18:02.092Z,3.90
2023-01-27T10:21:18.354Z,3.60
2023-01-27T10:24:41.989Z,3.60
2023-01-27T10:27:57.336Z,3.50
2023-01-27T10:31:12.532Z,3.30
2023-01-27T10:34:29.917Z,3.30
2023-01-27T10:37:51.687Z,3.20
2023-01-27T10:41:08.732Z,3.30
2023-01-27T10:44:34.218Z,3.40
2023-01-27T10:47:57.270Z,3.40
2023-01-27T10:51:11.640Z,3.40
2023-01-27T10:54:27.216Z,3.30
2023-01-27T10:57:42.496Z,3.10
2023-01-27T11:04:35.730Z,3.00
2023-01-27T11:07:51.243Z,3.10
2023-01-27T11:11:21.249Z,3.00
2023-01-27T11:14:32.366Z,2.80
2023-01-27T11:17:48.557Z,2.90
2023-01-27T11:21:01.372Z,2.80
2023-01-27T11:24:24.649Z,2.90
2023-01-27T11:27:47.429Z,2.70
2023-01-27T11:31:04.771Z,2.70
2023-01-27T11:34:20.164Z,2.70
2023-01-27T11:37:33.345Z,2.70
2023-01-27T11:40:42.186Z,2.50
2023-01-27T11:43:50.828Z,2.50
2023-01-27T11:46:59.835Z,2.60
2023-01-27T11:50:16.599Z,2.60
2023-01-27T11:53:32.228Z,2.60
2023-01-27T11:56:42.780Z,2.70
2023-01-27T11:59:54.999Z,2.60
2023-01-27T12:03:10.683Z,2.60
2023-01-27T12:06:32.422Z,2.60
2023-01-27T12:09:43.216Z,2.70
2023-01-27T12:12:51.824Z,2.50
2023-01-27T12:16:03.326Z,2.60
2023-01-27T12:19:24.805Z,2.50
2023-01-27T12:22:38.458Z,2.40
2023-01-27T12:25:50.688Z,2.40
2023-01-27T12:29:04.317Z,2.40
2023-01-27T12:32:17.857Z,2.40
2023-01-27T12:35:31.762Z,2.50
2023-01-27T12:38:47.389Z,2.50
2023-01-27T12:41:55.908Z,2.50
2023-01-27T12:45:27.102Z,2.40
2023-01-27T12:48:44.374Z,2.30
2023-01-27T12:51:55.804Z,2.30
2023-01-27T12:55:06.327Z,2.40
2023-01-27T12:58:31.864Z,2.20
2023-01-27T13:01:41.952Z,2.20
2023-01-27T13:04:54.146Z,2.10
2023-01-27T13:08:03.248Z,2.20
2023-01-27T13:11:13.849Z,2.20
2023-01-27T13:14:22.807Z,2.10
2023-01-27T13:17:38.107Z,2.20
2023-01-27T13:20:52.182Z,2.10
2023-01-27T13:24:03.272Z,2.00
2023-01-27T13:27:17.377Z,1.90
2023-01-27T13:30:31.510Z,1.80
2023-01-27T13:33:44.766Z,1.80
2023-01-27T13:37:02.521Z,1.80
2023-01-27T13:40:19.230Z,1.70
2023-01-27T13:43:34.012Z,1.70
2023-01-27T13:46:44.837Z,1.70
2023-01-27T13:49:57.675Z,1.70
2023-01-27T13:53:07.187Z,1.80
2023-01-27T13:56:27.248Z,1.80
2023-01-27T13:59:49.820Z,1.90
2023-01-27T14:03:21.494Z,1.90
2023-01-27T14:06:38.959Z,2.00
2023-01-27T14:10:01.576Z,1.80
2023-01-27T14:13:26.511Z,1.80
2023-01-27T14:16:46.294Z,1.90
2023-01-27T14:20:08.018Z,1.80
2023-01-27T14:23:28.483Z,1.80
2023-01-27T14:26:49.833Z,1.80
2023-01-27T14:30:08.103Z,1.80
2023-01-27T14:33:28.792Z,1.70
2023-01-27T14:36:44.516Z,1.70
2023-01-27T14:40:07.556Z,1.60
2023-01-27T14:43:23.895Z,1.60
2023-01-27T14:46:51.719Z,1.60
2023-01-27T14:50:15.029Z,1.50
2023-01-27T14:53:38.476Z,1.40
2023-01-27T14:56:55.786Z,1.40
2023-01-27T15:00:34.439Z,1.30
2023-01-27T15:04:25.997Z,1.30
2023-01-27T15:07:43.692Z,1.20
2023-01-27T15:11:03.077Z,1.10
2023-01-27T15:14:33.234Z,1.10
2023-01-27T15:17:55.137Z,1.00
2023-01-27T15:21:22.429Z,0.90
2023-01-27T15:25:02.783Z,0.80
2023-01-27T15:28:14.598Z,0.80
2023-01-27T15:31:26.271Z,0.70
2023-01-27T15:34:34.784Z,0.70
2023-01-27T15:37:59.455Z,0.70
2023-01-27T15:41:13.294Z,0.70
2023-01-27T15:44:30.361Z,0.60
2023-01-27T15:47:38.844Z,0.50
2023-01-27T15:50:51.184Z,0.50
2023-01-27T15:54:01.354Z,0.50
2023-01-27T15:57:26.486Z,0.40
2023-01-27T16:00:37.887Z,0.40
2023-01-27T16:03:49.987Z,0.30
2023-01-27T16:07:02.977Z,0.20
2023-01-27T16:10:20.218Z,0.10
2023-01-27T16:13:31.420Z,0.10
2023-01-27T16:16:41.339Z,-0.10
2023-01-27T16:20:01.162Z,-0.20
2023-01-27T16:23:14.744Z,-0.30
2023-01-27T16:26:32.982Z,-0.30
2023-01-27T16:29:48.323Z,-0.30
2023-01-27T16:33:06.300Z,-0.30
2023-01-27T16:36:22.752Z,-0.40
2023-01-27T16:39:37.273Z,-0.40
2023-01-27T16:42:55.579Z,-0.30
2023-01-27T16:46:05.883Z,-0.40
2023-01-27T16:49:19.697Z,-0.60
2023-01-27T16:52:41.314Z,-0.70
2023-01-27T16:55:58.207Z,-0.70
2023-01-27T16:59:10.180Z,-0.80
2023-01-27T17:02:23.577Z,-0.80
2023-01-27T17:05:32.303Z,-0.80
2023-01-27T17:08:48.092Z,-0.90
2023-01-27T17:11:56.718Z,-1.00
2023-01-27T17:15:18.430Z,-1.00
2023-01-27T17:18:31.642Z,-1.10
2023-01-27T17:21:46.517Z,-1.10
2023-01-27T17:24:57.198Z,-1.10
2023-01-27T17:28:08.645Z,-1.10
2023-01-27T17:31:21.206Z,-1.20
2023-01-27T17:34:31.829Z,-1.30
2023-01-27T17:37:43.816Z,-1.30
2023-01-27T17:40:53.507Z,-1.20
2023-01-27T17:44:02.823Z,-1.20
2023-01-27T17:47:15.660Z,-1.20
2023-01-27T17:50:35.028Z,-1.20
2023-01-27T17:53:44.367Z,-1.30
2023-01-27T17:56:58.852Z,-1.40
2023-01-27T18:00:11.015Z,-1.40
2023-01-27T18:03:26.358Z,-1.40
2023-01-27T18:06:36.371Z,-1.40
2023-01-27T18:09:46.202Z,-1.30
2023-01-27T18:12:55.624Z,-1.30
2023-01-27T18:16:14.053Z,-1.40
2023-01-27T18:19:25.526Z,-1.40
2023-01-27T18:22:35.305Z,-1.40
2023-01-27T18:25:51.560Z,-1.40
2023-01-27T18:29:02.619Z,-1.40
2023-01-27T18:32:17.873Z,-1.30
2023-01-27T18:35:28.573Z,-1.30
2023-01-27T18:38:49.831Z,-1.30
2023-01-27T18:41:59.142Z,-1.30
2023-01-27T18:45:12.734Z,-1.30
2023-01-27T18:48:21.824Z,-1.30
2023-01-27T18:51:30.220Z,-1.30
2023-01-27T18:54:40.131Z,-1.40
2023-01-27T18:57:50.215Z,-1.50
2023-01-27T19:00:59.721Z,-1.60
2023-01-27T19:04:12.955Z,-1.70
2023-01-27T19:07:21.406Z,-1.60
2023-01-27T19:10:33.416Z,-1.70
2023-01-27T19:13:42.127Z,-1.90
2023-01-27T19:16:50.490Z,-1.90
2023-01-27T19:19:59.592Z,-2.00
2023-01-27T19:23:12.434Z,-1.90
2023-01-27T19:26:24.345Z,-1.80
2023-01-27T19:29:32.706Z,-1.80
2023-01-27T19:32:41.084Z,-1.90
2023-01-27T19:35:53.542Z,-1.90
2023-01-27T19:39:10.221Z,-2.10
2023-01-27T19:42:19.943Z,-2.10
2023-01-27T19:45:29.193Z,-2.10
2023-01-27T19:48:37.706Z,-2.20
2023-01-27T19:51:46.534Z,-2.20
2023-01-27T19:54:54.924Z,-2.20
2023-01-27T19:58:05.132Z,-2.20
2023-01-27T20:01:14.109Z,-2.20
2023-01-27T20:04:22.553Z,-2.30
2023-01-27T20:07:30.942Z,-2.20
2023-01-27T20:10:39.419Z,-2.20
2023-01-27T20:13:49.242Z,-2.30
2023-01-27T20:16:58.692Z,-2.20
2023-01-27T20:20:07.956Z,-2.30
2023-01-27T20:23:17.182Z,-2.30
2023-01-27T20:26:26.251Z,-2.30
2023-01-27T20:29:37.266Z,-2.30
2023-01-27T20:32:45.816Z,-2.40
2023-01-27T20:35:54.221Z,-2.40
2023-01-27T20:39:02.683Z,-2.50
2023-01-27T20:42:11.140Z,-2.60
2023-01-27T20:45:21.298Z,-2.60
2023-01-27T20:48:29.664Z,-2.60
2023-01-27T20:51:38.161Z,-2.70
2023-01-27T20:54:46.851Z,-2.70
2023-01-27T20:57:55.409Z,-2.70
2023-01-27T21:01:10.282Z,-2.60
2023-01-27T21:04:18.835Z,-2.40
2023-01-27T21:07:27.665Z,-2.20
2023-01-27T21:10:36.123Z,-2.40
2023-01-27T21:13:44.627Z,-2.60
2023-01-27T21:16:54.531Z,-2.60
2023-01-27T21:20:03.100Z,-2.40
2023-01-27T21:23:11.535Z,-2.50
2023-01-27T21:26:20.092Z,-2.40
2023-01-27T21:29:29.850Z,-2.50
2023-01-27T21:32:43.693Z,-2.50
2023-01-27T21:35:55.699Z,-2.40
2023-01-27T21:39:04.602Z,-2.50
2023-01-27T21:42:32.316Z,-2.50
2023-01-27T21:45:40.730Z,-2.60
2023-01-27T21:48:50.710Z,-2.60
2023-01-27T21:51:59.232Z,-2.70
2023-01-27T21:55:09.830Z,-2.80
2023-01-27T21:58:20.330Z,-2.50
2023-01-27T22:01:31.546Z,-2.30
2023-01-27T22:04:43.721Z,-2.30
2023-01-27T22:07:52.919Z,-2.50
2023-01-27T22:11:04.684Z,-2.50
2023-01-27T22:14:13.488Z,-2.30
2023-01-27T22:17:21.885Z,-2.30
2023-01-27T22:20:32.156Z,-2.40
2023-01-27T22:23:40.699Z,-2.30
2023-01-27T22:26:49.247Z,-2.30
2023-01-27T22:29:57.640Z,-2.20
2023-01-27T22:33:06.010Z,-2.10
2023-01-27T22:36:15.985Z,-1.80
2023-01-27T22:39:26.259Z,-1.60
2023-01-27T22:42:35.298Z,-1.50
2023-01-27T22:45:43.739Z,-1.40
2023-01-27T22:48:52.427Z,-1.30
2023-01-27T22:52:02.208Z,-1.10
2023-01-27T22:55:11.808Z,-0.80
2023-01-27T22:58:20.303Z,-0.50
2023-01-27T23:01:28.959Z,-0.30
2023-01-27T23:04:37.492Z,0.00
2023-01-27T23:07:48.076Z,0.20
2023-01-27T23:11:02.170Z,0.40
2023-01-27T23:14:10.682Z,0.40
2023-01-27T23:17:19.356Z,0.50
2023-01-27T23:20:28.367Z,0.70
2023-01-27T23:23:45.055Z,0.80
2023-01-27T23:26:54.013Z,0.80
2023-01-27T23:30:02.367Z,0.90
2023-01-27T23:33:10.790Z,1.00
2023-01-27T23:36:19.141Z,1.00
2023-01-27T23:39:28.910Z,1.10
2023-01-27T23:42:37.321Z,1.10
2023-01-27T23:45:52.257Z,1.20
2023-01-27T23:49:00.766Z,1.30
2023-01-27T23:52:09.235Z,1.30
2023-01-27T23:55:19.257Z,1.30
2023-01-27T23:58:28.345Z,1.40
